Time,TemperatureF,DewpointF,PressureIn,WindDirection,WindDirectionDegrees,WindSpeedMPH,WindSpeedGustMPH,Humidity,HourlyPrecipIn,Conditions,Clouds,dailyrainin,SoftwareType,DateUTC
2013-05-08 00:08:00,60.5,53.0,30.07,East,95,3.0,9.0,75,0.00,,,0.00,weatherlink.com 1.10,2013-05-08 04:08:00,
2013-05-08 00:23:00,60.6,53.0,30.07,SE,134,1.0,10.0,75,0.00,,,0.00,weatherlink.com 1.10,2013-05-08 04:23:00,
2013-05-08 00:38:00,60.4,53.0,30.07,East,101,9.0,9.0,76,0.00,,,0.00,weatherlink.com 1.10,2013-05-08 04:38:00,
2013-05-08 00:53:00,60.2,53.0,30.06,South,185,2.0,7.0,77,0.00,,,0.00,weatherlink.com 1.10,2013-05-08 04:53:00,
2013-05-08 01:08:00,60.1,53.0,30.06,East,90,3.0,7.0,77,0.00,,,0.00,weatherlink.com 1.10,2013-05-08 05:08:00,
2013-05-08 01:23:00,60.0,52.0,30.05,SSE,152,3.0,7.0,75,0.00,,,0.00,weatherlink.com 1.10,2013-05-08 05:23:00,
2013-05-08 01:38:00,60.0,52.0,30.04,SE,142,2.0,7.0,75,0.00,,,0.00,weatherlink.com 1.10,2013-05-08 05:38:00,
2013-05-08 01:53:00,59.7,52.0,30.04,SE,132,1.0,5.0,76,0.00,,,0.00,weatherlink.com 1.10,2013-05-08 05:53:00,
2013-05-08 02:08:00,59.1,52.0,30.04,SE,135,0.0,3.0,78,0.00,,,0.00,weatherlink.com 1.10,2013-05-08 06:08:00,
2013-05-08 02:23:00,58.7,53.0,30.04,SSE,148,0.0,2.0,80,0.00,,,0.00,weatherlink.com 1.10,2013-05-08 06:23:00,
2013-05-08 02:38:00,58.2,52.0,30.04,ESE,117,0.0,4.0,81,0.00,,,0.00,weatherlink.com 1.10,2013-05-08 06:38:00,
2013-05-08 02:53:00,57.9,52.0,30.04,SE,126,3.0,4.0,80,0.00,,,0.00,weatherlink.com 1.10,2013-05-08 06:53:00,
2013-05-08 03:08:00,58.6,52.0,30.04,SE,132,1.0,5.0,78,0.00,,,0.00,weatherlink.com 1.10,2013-05-08 07:08:00,
2013-05-08 03:23:00,58.4,52.0,30.03,East,91,1.0,3.0,79,0.00,,,0.00,weatherlink.com 1.10,2013-05-08 07:23:00,
2013-05-08 03:38:00,57.5,52.0,30.03,East,100,2.0,5.0,82,0.00,,,0.00,weatherlink.com 1.10,2013-05-08 07:38:00,
2013-05-08 03:53:00,57.3,52.0,30.02,ESE,103,1.0,2.0,83,0.00,,,0.00,weatherlink.com 1.10,2013-05-08 07:53:00,
2013-05-08 04:08:00,57.1,52.0,30.02,SSE,148,0.0,2.0,83,0.00,,,0.00,weatherlink.com 1.10,2013-05-08 08:08:00,
2013-05-08 04:23:00,56.4,52.0,30.03,ESE,103,1.0,3.0,85,0.00,,,0.00,weatherlink.com 1.10,2013-05-08 08:23:00,
2013-05-08 04:38:00,56.7,52.0,30.03,East,100,0.0,5.0,85,0.00,,,0.00,weatherlink.com 1.10,2013-05-08 08:38:00,
2013-05-08 04:53:00,57.5,53.0,30.02,ESE,112,1.0,5.0,85,0.00,,,0.00,weatherlink.com 1.10,2013-05-08 08:53:00,
2013-05-08 05:08:00,58.0,53.0,30.02,ESE,105,1.0,5.0,84,0.00,,,0.00,weatherlink.com 1.10,2013-05-08 09:08:00,
2013-05-08 05:23:00,58.4,54.0,30.02,East,94,1.0,5.0,84,0.00,,,0.00,weatherlink.com 1.10,2013-05-08 09:23:00,
2013-05-08 05:38:00,58.6,54.0,30.02,SE,146,0.0,7.0,85,0.00,,,0.00,weatherlink.com 1.10,2013-05-08 09:38:00,
2013-05-08 05:53:00,58.5,54.0,30.02,SE,142,0.0,3.0,85,0.00,,,0.00,weatherlink.com 1.10,2013-05-08 09:53:00,
2013-05-08 06:08:00,58.3,54.0,30.03,SSE,148,0.0,2.0,85,0.00,,,0.00,weatherlink.com 1.10,2013-05-08 10:08:00,
2013-05-08 06:23:00,58.1,54.0,30.03,SSE,148,0.0,0.0,86,0.00,,,0.00,weatherlink.com 1.10,2013-05-08 10:23:00,
2013-05-08 06:38:00,58.1,54.0,30.03,WSW,242,0.0,0.0,86,0.00,,,0.00,weatherlink.com 1.10,2013-05-08 10:38:00,
2013-05-08 06:53:00,58.7,55.0,30.03,SW,218,3.0,3.0,86,0.00,,,0.00,weatherlink.com 1.10,2013-05-08 10:53:00,
2013-05-08 07:08:00,60.1,56.0,30.04,ESE,122,3.0,4.0,85,0.00,,,0.00,weatherlink.com 1.10,2013-05-08 11:08:00,
2013-05-08 07:23:00,60.6,56.0,30.04,ESE,110,5.0,9.0,84,0.00,,,0.00,weatherlink.com 1.10,2013-05-08 11:23:00,
2013-05-08 07:38:00,60.6,55.0,30.04,South,186,2.0,9.0,83,0.00,,,0.00,weatherlink.com 1.10,2013-05-08 11:38:00,
2013-05-08 07:53:00,60.6,55.0,30.04,SE,133,1.0,9.0,82,0.00,,,0.00,weatherlink.com 1.10,2013-05-08 11:53:00,
2013-05-08 08:08:00,60.7,55.0,30.04,ENE,57,2.0,8.0,82,0.00,,,0.00,weatherlink.com 1.10,2013-05-08 12:08:00,
2013-05-08 08:23:00,61.0,56.0,30.04,SSW,211,1.0,8.0,82,0.00,,,0.00,weatherlink.com 1.10,2013-05-08 12:23:00,
2013-05-08 08:39:00,60.9,55.0,30.04,ESE,102,1.0,8.0,82,0.00,,,0.00,weatherlink.com 1.10,2013-05-08 12:39:00,
2013-05-08 08:54:00,60.9,55.0,30.04,South,183,1.0,9.0,82,0.00,,,0.00,weatherlink.com 1.10,2013-05-08 12:54:00,
2013-05-08 09:09:00,60.6,55.0,30.04,SSE,155,5.0,8.0,83,0.00,,,0.00,weatherlink.com 1.10,2013-05-08 13:09:00,
2013-05-08 09:24:00,60.5,55.0,30.04,SSW,196,1.0,5.0,83,0.00,,,0.00,weatherlink.com 1.10,2013-05-08 13:24:00,
2013-05-08 09:39:00,60.7,56.0,30.04,South,171,0.0,8.0,83,0.00,,,0.00,weatherlink.com 1.10,2013-05-08 13:39:00,
2013-05-08 09:54:00,60.5,56.0,30.04,SE,130,2.0,8.0,85,0.00,,,0.00,weatherlink.com 1.10,2013-05-08 13:54:00,
2013-05-08 10:09:00,60.2,57.0,30.04,South,177,0.0,7.0,88,0.01,,,0.01,weatherlink.com 1.10,2013-05-08 14:09:00,
2013-05-08 10:24:00,60.0,57.0,30.04,SSE,153,2.0,6.0,89,0.02,,,0.02,weatherlink.com 1.10,2013-05-08 14:24:00,
2013-05-08 10:39:00,59.9,57.0,30.04,SE,146,1.0,4.0,90,0.03,,,0.03,weatherlink.com 1.10,2013-05-08 14:39:00,
2013-05-08 10:54:00,59.8,57.0,30.04,SSW,211,1.0,3.0,91,0.04,,,0.04,weatherlink.com 1.10,2013-05-08 14:54:00,
2013-05-08 11:09:00,59.5,56.0,30.03,South,177,3.0,8.0,89,0.04,,,0.05,weatherlink.com 1.10,2013-05-08 15:09:00,
2013-05-08 11:24:00,59.4,56.0,30.03,SSE,153,1.0,6.0,89,0.04,,,0.06,weatherlink.com 1.10,2013-05-08 15:24:00,
2013-05-08 11:39:00,59.1,57.0,30.03,South,178,0.0,5.0,91,0.05,,,0.08,weatherlink.com 1.10,2013-05-08 15:39:00,
2013-05-08 11:54:00,59.0,56.0,30.02,ESE,117,1.0,5.0,91,0.08,,,0.12,weatherlink.com 1.10,2013-05-08 15:54:00,
2013-05-08 12:09:00,59.3,57.0,30.01,SE,144,1.0,6.0,91,0.09,,,0.14,weatherlink.com 1.10,2013-05-08 16:09:00,
2013-05-08 12:24:00,59.6,57.0,30.01,SE,136,2.0,7.0,92,0.09,,,0.15,weatherlink.com 1.10,2013-05-08 16:24:00,
2013-05-08 13:44:00,60.9,58.0,29.99,SE,138,0.0,4.0,90,0.01,,,0.17,weatherlink.com 1.10,2013-05-08 17:44:00,
2013-05-08 13:54:00,60.7,58.0,29.99,SSE,154,0.0,5.0,91,0.00,,,0.17,weatherlink.com 1.10,2013-05-08 17:54:00,
2013-05-08 14:09:00,60.4,58.0,29.99,SE,141,1.0,4.0,91,0.01,,,0.18,weatherlink.com 1.10,2013-05-08 18:09:00,
2013-05-08 14:24:00,60.4,58.0,29.98,ESE,118,1.0,3.0,92,0.02,,,0.19,weatherlink.com 1.10,2013-05-08 18:24:00,
2013-05-08 14:39:00,60.2,58.0,29.97,SE,140,1.0,3.0,91,0.04,,,0.21,weatherlink.com 1.10,2013-05-08 18:39:00,
2013-05-08 14:54:00,60.2,58.0,29.97,SSE,159,0.0,0.0,92,0.04,,,0.21,weatherlink.com 1.10,2013-05-08 18:54:00,
2013-05-08 15:09:00,60.0,58.0,29.96,South,171,1.0,3.0,92,0.03,,,0.21,weatherlink.com 1.10,2013-05-08 19:09:00,
2013-05-08 15:24:00,59.8,58.0,29.95,SE,126,0.0,2.0,92,0.05,,,0.24,weatherlink.com 1.10,2013-05-08 19:24:00,
2013-05-08 15:39:00,59.5,58.0,29.95,South,177,1.0,3.0,93,0.11,,,0.32,weatherlink.com 1.10,2013-05-08 19:39:00,
2013-05-08 15:54:00,59.2,57.0,29.94,SSE,159,1.0,3.0,93,0.17,,,0.38,weatherlink.com 1.10,2013-05-08 19:54:00,
2013-05-08 16:09:00,59.1,57.0,29.94,SSE,159,0.0,2.0,94,0.18,,,0.39,weatherlink.com 1.10,2013-05-08 20:09:00,
2013-05-08 16:24:00,59.0,57.0,29.93,WSW,242,0.0,4.0,94,0.15,,,0.40,weatherlink.com 1.10,2013-05-08 20:24:00,
2013-05-08 16:39:00,59.2,57.0,29.94,East,100,6.0,9.0,93,0.07,,,0.40,weatherlink.com 1.10,2013-05-08 20:39:00,
2013-05-08 16:54:00,59.5,57.0,29.93,SE,130,1.0,11.0,92,0.02,,,0.40,weatherlink.com 1.10,2013-05-08 20:54:00,
2013-05-08 17:09:00,59.6,57.0,29.94,SE,139,2.0,7.0,92,0.02,,,0.41,weatherlink.com 1.10,2013-05-08 21:09:00,
2013-05-08 17:24:00,59.7,58.0,29.93,SSE,155,2.0,4.0,93,0.01,,,0.41,weatherlink.com 1.10,2013-05-08 21:24:00,
2013-05-08 17:39:00,59.7,58.0,29.93,ESE,103,0.0,4.0,93,0.01,,,0.41,weatherlink.com 1.10,2013-05-08 21:39:00,
2013-05-08 17:54:00,60.1,58.0,29.93,SE,130,2.0,7.0,92,0.03,,,0.43,weatherlink.com 1.10,2013-05-08 21:54:00,
2013-05-08 18:09:00,60.5,58.0,29.92,ESE,122,3.0,6.0,92,0.02,,,0.43,weatherlink.com 1.10,2013-05-08 22:09:00,
2013-05-08 18:24:00,60.4,58.0,29.92,SSE,161,0.0,5.0,91,0.02,,,0.43,weatherlink.com 1.10,2013-05-08 22:24:00,
2013-05-08 18:39:00,60.2,58.0,29.92,SSE,165,1.0,6.0,92,0.05,,,0.46,weatherlink.com 1.10,2013-05-08 22:39:00,
2013-05-08 18:54:00,59.9,58.0,29.92,ESE,113,0.0,7.0,93,0.05,,,0.48,weatherlink.com 1.10,2013-05-08 22:54:00,
2013-05-08 19:09:00,60.1,58.0,29.91,SE,128,0.0,5.0,92,0.05,,,0.48,weatherlink.com 1.10,2013-05-08 23:09:00,
2013-05-08 19:24:00,60.1,58.0,29.92,SSE,149,1.0,5.0,91,0.05,,,0.48,weatherlink.com 1.10,2013-05-08 23:24:00,
2013-05-08 19:39:00,59.6,57.0,29.92,South,179,0.0,6.0,91,0.01,,,0.48,weatherlink.com 1.10,2013-05-08 23:39:00,
2013-05-08 19:54:00,59.2,57.0,29.93,SSW,213,1.0,2.0,92,0.00,,,0.48,weatherlink.com 1.10,2013-05-08 23:54:00,
2013-05-08 20:09:00,58.7,56.0,29.93,SW,229,1.0,4.0,92,0.00,,,0.48,weatherlink.com 1.10,2013-05-09 00:09:00,
2013-05-08 20:24:00,58.2,56.0,29.94,ESE,111,0.0,1.0,92,0.00,,,0.48,weatherlink.com 1.10,2013-05-09 00:24:00,
2013-05-08 20:39:00,57.9,56.0,29.94,ESE,111,0.0,1.0,93,0.00,,,0.48,weatherlink.com 1.10,2013-05-09 00:39:00,
2013-05-08 20:54:00,57.4,55.0,29.94,ESE,111,0.0,1.0,93,0.00,,,0.48,weatherlink.com 1.10,2013-05-09 00:54:00,
2013-05-08 21:09:00,56.9,55.0,29.94,ESE,111,0.0,2.0,94,0.00,,,0.48,weatherlink.com 1.10,2013-05-09 01:09:00,
2013-05-08 21:24:00,56.7,55.0,29.95,ESE,111,1.0,1.0,95,0.00,,,0.48,weatherlink.com 1.10,2013-05-09 01:24:00,
2013-05-08 21:39:00,56.4,55.0,29.96,South,182,0.0,2.0,95,0.00,,,0.48,weatherlink.com 1.10,2013-05-09 01:39:00,
2013-05-08 21:54:00,56.2,55.0,29.96,South,182,0.0,1.0,95,0.00,,,0.48,weatherlink.com 1.10,2013-05-09 01:54:00,
2013-05-08 22:09:00,55.9,55.0,29.96,South,182,0.0,0.0,95,0.00,,,0.48,weatherlink.com 1.10,2013-05-09 02:09:00,
2013-05-08 22:24:00,55.5,54.0,29.96,ESE,117,0.0,1.0,95,0.00,,,0.48,weatherlink.com 1.10,2013-05-09 02:24:00,
2013-05-08 22:40:00,55.2,54.0,29.97,ESE,121,1.0,2.0,94,0.00,,,0.48,weatherlink.com 1.10,2013-05-09 02:40:00,
2013-05-08 22:55:00,54.7,53.0,29.96,East,92,0.0,2.0,94,0.00,,,0.48,weatherlink.com 1.10,2013-05-09 02:55:00,
2013-05-08 23:10:00,54.4,53.0,29.96,NNE,28,1.0,2.0,94,0.00,,,0.48,weatherlink.com 1.10,2013-05-09 03:10:00,
2013-05-08 23:25:00,54.0,52.0,29.96,ESE,102,2.0,2.0,94,0.00,,,0.48,weatherlink.com 1.10,2013-05-09 03:25:00,
2013-05-08 23:40:00,53.6,52.0,29.95,East,90,1.0,3.0,94,0.00,,,0.48,weatherlink.com 1.10,2013-05-09 03:40:00,
2013-05-08 23:55:00,53.2,51.0,29.95,SE,135,1.0,2.0,93,0.00,,,0.48,weatherlink.com 1.10,2013-05-09 03:55:00,